createdAt,value
2018-07-26T00:01:45.751Z,24.53
2018-07-26T00:04:14.374Z,21.87
2018-07-26T00:06:42.964Z,22.20
2018-07-26T00:09:12.053Z,25.17
2018-07-26T00:11:40.993Z,23.33
2018-07-26T00:14:09.530Z,34.20
2018-07-26T00:16:38.082Z,29.07
2018-07-26T00:19:06.691Z,31.47
2018-07-26T00:21:35.248Z,35.93
2018-07-26T00:24:03.831Z,35.90
2018-07-26T00:26:32.357Z,42.07
2018-07-26T00:29:00.889Z,37.90
2018-07-26T00:31:29.409Z,36.27
2018-07-26T00:33:58.000Z,57.53
2018-07-26T00:36:26.551Z,38.73
2018-07-26T00:38:55.084Z,41.53
2018-07-26T00:41:23.662Z,38.27
2018-07-26T00:43:52.145Z,41.03
2018-07-26T00:46:20.652Z,46.20
2018-07-26T00:48:49.179Z,72.73
2018-07-26T00:51:17.765Z,41.03
2018-07-26T00:53:46.358Z,43.30
2018-07-26T00:56:14.886Z,38.90
2018-07-26T00:58:44.457Z,49.03
2018-07-26T01:01:12.966Z,42.50
2018-07-26T01:03:41.491Z,48.37
2018-07-26T01:06:10.024Z,34.60
2018-07-26T01:08:38.620Z,35.97
2018-07-26T01:11:07.289Z,42.10
2018-07-26T01:13:36.016Z,34.13
2018-07-26T01:16:04.885Z,36.47
2018-07-26T01:18:33.413Z,31.53
2018-07-26T01:21:02.049Z,36.93
2018-07-26T01:23:30.566Z,33.30
2018-07-26T01:25:59.147Z,32.60
2018-07-26T01:28:27.392Z,36.70
2018-07-26T01:30:56.046Z,36.40
2018-07-26T01:33:24.837Z,36.00
2018-07-26T01:35:53.379Z,33.13
2018-07-26T01:38:22.116Z,35.07
2018-07-26T01:40:50.619Z,31.33
2018-07-26T01:43:55.776Z,31.77
2018-07-26T01:46:25.365Z,34.50
2018-07-26T01:48:53.939Z,34.67
2018-07-26T01:51:22.496Z,34.83
2018-07-26T01:53:51.060Z,37.93
2018-07-26T01:56:19.672Z,35.27
2018-07-26T01:58:48.236Z,63.83
2018-07-26T02:01:16.745Z,37.03
2018-07-26T02:03:45.310Z,34.50
2018-07-26T02:06:13.884Z,38.10
2018-07-26T02:08:42.391Z,40.23
2018-07-26T02:11:10.919Z,41.83
2018-07-26T02:13:39.445Z,41.93
2018-07-26T02:16:08.000Z,40.83
2018-07-26T02:18:36.541Z,45.50
2018-07-26T02:21:05.115Z,44.80
2018-07-26T02:23:33.728Z,41.93
2018-07-26T02:26:02.310Z,49.03
2018-07-26T02:28:30.862Z,48.47
2018-07-26T02:30:59.381Z,49.03
2018-07-26T02:33:27.922Z,47.40
2018-07-26T02:35:56.474Z,47.60
2018-07-26T02:38:25.888Z,50.30
2018-07-26T02:40:54.508Z,48.60
2018-07-26T02:43:23.046Z,47.63
2018-07-26T02:45:51.553Z,46.03
2018-07-26T02:48:20.091Z,55.17
2018-07-26T02:50:48.626Z,76.23
2018-07-26T02:53:17.168Z,85.83
2018-07-26T02:55:45.671Z,100.30
2018-07-26T02:58:14.225Z,143.17
2018-07-26T03:00:42.754Z,94.37
2018-07-26T03:03:11.279Z,74.17
2018-07-26T03:05:40.308Z,59.13
2018-07-26T03:08:08.825Z,59.00
2018-07-26T03:10:37.302Z,48.37
2018-07-26T03:13:06.018Z,50.50
2018-07-26T03:15:34.987Z,48.33
2018-07-26T03:18:03.566Z,44.77
2018-07-26T03:20:32.108Z,49.70
2018-07-26T03:23:00.741Z,46.70
2018-07-26T03:25:29.324Z,52.63
2018-07-26T03:27:57.862Z,47.60
2018-07-26T03:30:26.079Z,75.03
2018-07-26T03:32:54.625Z,80.23
2018-07-26T03:35:23.152Z,84.20
2018-07-26T03:37:51.648Z,77.83
2018-07-26T03:40:20.171Z,71.13
2018-07-26T03:42:48.932Z,73.50
2018-07-26T03:45:17.443Z,69.33
2018-07-26T03:47:45.669Z,70.73
2018-07-26T03:50:14.315Z,74.23
2018-07-26T03:52:42.887Z,67.27
2018-07-26T03:55:11.518Z,71.20
2018-07-26T03:57:40.073Z,75.07
2018-07-26T04:00:08.627Z,64.47
2018-07-26T04:02:37.140Z,61.57
2018-07-26T04:05:05.683Z,57.07
2018-07-26T04:07:34.209Z,64.30
2018-07-26T04:10:02.730Z,92.50
2018-07-26T04:12:31.270Z,67.50
2018-07-26T04:14:59.790Z,81.47
2018-07-26T04:17:28.339Z,71.70
2018-07-26T04:19:56.955Z,73.77
2018-07-26T04:22:25.476Z,77.77
2018-07-26T04:24:53.999Z,74.63
2018-07-26T04:27:22.543Z,69.53
2018-07-26T04:29:51.034Z,73.73
2018-07-26T04:32:19.671Z,87.13
2018-07-26T04:34:48.237Z,74.33
2018-07-26T04:37:16.776Z,83.37
2018-07-26T04:39:45.269Z,82.77
2018-07-26T04:42:13.805Z,65.93
2018-07-26T04:44:42.312Z,92.20
2018-07-26T04:54:34.378Z,65.33
2018-07-26T04:57:02.905Z,62.07
2018-07-26T04:59:31.103Z,57.43
2018-07-26T05:01:59.622Z,47.73
2018-07-26T05:04:28.137Z,47.63
2018-07-26T05:06:56.661Z,45.27
2018-07-26T05:09:25.262Z,45.53
2018-07-26T05:11:53.793Z,42.83
2018-07-26T05:14:22.335Z,38.90
2018-07-26T05:16:50.850Z,38.87
2018-07-26T05:19:19.346Z,38.50
2018-07-26T05:21:47.877Z,36.73
2018-07-26T05:24:16.414Z,34.23
2018-07-26T05:26:44.980Z,31.80
2018-07-26T05:29:13.523Z,34.30
2018-07-26T05:31:42.363Z,32.47
2018-07-26T05:34:10.973Z,34.93
2018-07-26T05:36:39.688Z,29.77
2018-07-26T05:39:10.495Z,29.90
2018-07-26T05:41:39.643Z,29.63
2018-07-26T05:44:08.281Z,31.43
2018-07-26T05:46:36.939Z,29.13
2018-07-26T05:49:05.715Z,32.73
2018-07-26T05:51:34.596Z,29.87
2018-07-26T05:54:03.263Z,32.37
2018-07-26T05:56:32.081Z,30.57
2018-07-26T05:59:00.780Z,29.27
2018-07-26T06:01:29.536Z,30.63
2018-07-26T06:03:58.323Z,30.67
2018-07-26T06:06:26.954Z,30.03
2018-07-26T06:08:55.632Z,30.77
2018-07-26T06:11:24.274Z,28.67
2018-07-26T06:13:52.842Z,27.70
2018-07-26T06:16:21.591Z,25.83
2018-07-26T06:18:50.221Z,23.07
2018-07-26T06:21:18.843Z,24.00
2018-07-26T06:23:47.511Z,21.60
2018-07-26T06:26:16.107Z,20.33
2018-07-26T06:28:45.188Z,19.43
2018-07-26T06:31:14.035Z,19.23
2018-07-26T06:33:42.865Z,19.80
2018-07-26T06:36:11.478Z,20.00
2018-07-26T06:38:40.240Z,20.90
2018-07-26T06:41:08.938Z,21.50
2018-07-26T06:43:37.538Z,18.43
2018-07-26T06:46:06.218Z,18.63
2018-07-26T06:48:34.934Z,23.23
2018-07-26T06:51:03.873Z,19.10
2018-07-26T06:53:33.229Z,19.20
2018-07-26T06:56:01.879Z,17.40
2018-07-26T06:58:30.551Z,17.97
2018-07-26T07:00:59.416Z,20.70
2018-07-26T07:03:28.161Z,18.30
2018-07-26T07:05:56.822Z,19.03
2018-07-26T07:08:25.544Z,19.03
2018-07-26T07:10:54.162Z,18.87
2018-07-26T07:13:22.790Z,20.27
2018-07-26T07:15:51.623Z,18.33
2018-07-26T07:18:20.498Z,20.47
2018-07-26T07:20:49.257Z,16.97
2018-07-26T07:23:17.988Z,18.60
2018-07-26T07:25:46.601Z,17.57
2018-07-26T07:28:15.224Z,22.00
2018-07-26T07:30:43.993Z,17.80
2018-07-26T07:33:12.665Z,19.17
2018-07-26T07:35:41.261Z,17.43
2018-07-26T07:38:09.885Z,15.87
2018-07-26T07:40:39.301Z,16.83
2018-07-26T07:43:07.920Z,24.57
2018-07-26T07:45:36.626Z,16.93
2018-07-26T07:48:05.552Z,14.90
2018-07-26T07:50:34.168Z,14.53
2018-07-26T07:53:02.949Z,12.77
2018-07-26T07:55:31.679Z,14.63
2018-07-26T07:58:00.448Z,11.90
2018-07-26T08:00:29.079Z,13.13
2018-07-26T08:02:57.720Z,13.67
2018-07-26T08:05:26.704Z,12.43
2018-07-26T08:13:42.088Z,11.13
2018-07-26T08:16:10.887Z,12.47
2018-07-26T08:18:39.651Z,11.87
2018-07-26T08:21:08.440Z,12.57
2018-07-26T08:23:37.150Z,11.00
2018-07-26T08:26:06.170Z,7.83
2018-07-26T08:28:35.064Z,9.50
2018-07-26T08:31:03.885Z,8.53
2018-07-26T08:33:32.512Z,7.57
2018-07-26T08:36:01.119Z,9.07
2018-07-26T08:38:29.878Z,24.37
2018-07-26T08:40:58.901Z,8.40
2018-07-26T08:43:27.639Z,9.83
2018-07-26T08:45:56.381Z,8.53
2018-07-26T08:48:25.172Z,20.63
2018-07-26T08:50:53.831Z,7.47
2018-07-26T08:53:22.087Z,7.77
2018-07-26T08:55:50.837Z,7.20
2018-07-26T08:58:19.672Z,6.77
2018-07-26T09:00:48.288Z,7.07
2018-07-26T09:03:16.651Z,6.07
2018-07-26T09:05:45.247Z,5.57
2018-07-26T09:08:13.844Z,6.30
2018-07-26T09:10:42.476Z,6.90
2018-07-26T09:13:11.115Z,5.43
2018-07-26T09:15:39.362Z,5.53
2018-07-26T09:18:08.075Z,5.33
2018-07-26T09:20:36.809Z,4.63
2018-07-26T09:23:06.296Z,5.67
2018-07-26T09:25:34.987Z,5.10
2018-07-26T09:28:03.776Z,4.70
2018-07-26T09:30:32.426Z,4.03
2018-07-26T09:33:01.114Z,4.43
2018-07-26T09:35:29.787Z,3.93
2018-07-26T09:37:58.447Z,5.30
2018-07-26T09:40:27.163Z,4.80
2018-07-26T09:42:55.566Z,4.63
2018-07-26T09:45:24.256Z,4.33
2018-07-26T09:47:53.035Z,8.20
2018-07-26T09:50:22.467Z,8.63
2018-07-26T09:52:51.163Z,4.17
2018-07-26T09:55:19.763Z,3.00
2018-07-26T09:57:48.509Z,10.47
2018-07-26T10:00:21.445Z,3.30
2018-07-26T10:02:50.088Z,3.13
2018-07-26T10:05:18.721Z,3.40
2018-07-26T10:10:47.165Z,3.93
2018-07-26T10:13:15.825Z,3.40
2018-07-26T10:15:44.454Z,3.50
2018-07-26T10:18:13.187Z,3.50
2018-07-26T10:20:41.853Z,3.80
2018-07-26T10:23:10.667Z,3.40
2018-07-26T10:25:39.280Z,4.97
2018-07-26T10:28:08.046Z,3.73
2018-07-26T10:30:36.666Z,3.57
2018-07-26T10:33:05.597Z,3.87
2018-07-26T10:35:34.234Z,3.40
2018-07-26T10:38:03.066Z,4.03
2018-07-26T10:40:31.872Z,5.90
2018-07-26T10:43:00.701Z,2.60
2018-07-26T10:45:29.634Z,8.47
2018-07-26T10:50:52.608Z,2.83
2018-07-26T10:53:21.380Z,3.37
2018-07-26T10:55:50.126Z,3.63
2018-07-26T10:58:18.737Z,3.60
2018-07-26T11:00:47.607Z,3.63
2018-07-26T11:03:16.233Z,3.90
2018-07-26T11:05:45.164Z,2.50
2018-07-26T11:08:13.805Z,3.73
2018-07-26T11:10:42.404Z,3.80
2018-07-26T11:13:11.188Z,3.07
2018-07-26T11:15:39.883Z,4.53
2018-07-26T11:18:08.517Z,3.27
2018-07-26T11:20:37.777Z,4.40
2018-07-26T11:23:06.479Z,5.90
2018-07-26T11:25:35.267Z,3.30
2018-07-26T11:28:03.954Z,4.10
2018-07-26T11:30:33.160Z,3.10
2018-07-26T11:33:01.924Z,3.17
2018-07-26T11:35:30.644Z,3.00
2018-07-26T11:37:59.341Z,3.20
2018-07-26T11:40:28.089Z,2.83
2018-07-26T11:42:57.532Z,2.60
2018-07-26T11:45:26.183Z,3.07
2018-07-26T11:47:54.827Z,2.37
2018-07-26T11:50:23.460Z,2.83
2018-07-26T11:52:52.993Z,2.90
2018-07-26T11:55:21.764Z,2.47
2018-07-26T11:57:50.390Z,2.00
2018-07-26T12:00:19.012Z,2.80
2018-07-26T12:02:47.626Z,2.70
2018-07-26T12:05:16.274Z,6.73
2018-07-26T12:07:44.892Z,3.20
2018-07-26T12:10:13.640Z,9.80
2018-07-26T12:12:42.348Z,3.63
2018-07-26T12:15:11.092Z,3.20
2018-07-26T12:17:39.702Z,3.90
2018-07-26T12:20:08.379Z,3.73
2018-07-26T12:22:37.001Z,3.50
2018-07-26T12:25:05.718Z,2.97
2018-07-26T12:27:34.304Z,2.93
2018-07-26T12:30:02.964Z,3.07
2018-07-26T12:32:31.548Z,3.40
2018-07-26T12:35:00.222Z,3.30
2018-07-26T12:37:28.855Z,3.13
2018-07-26T12:39:57.644Z,3.43
2018-07-26T12:42:26.356Z,3.53
2018-07-26T12:44:55.180Z,3.10
2018-07-26T12:47:24.301Z,3.07
2018-07-26T12:49:53.061Z,2.93
2018-07-26T12:52:21.901Z,2.77
2018-07-26T12:54:50.968Z,3.50
2018-07-26T12:57:20.032Z,2.50
2018-07-26T12:59:48.758Z,3.20
2018-07-26T13:02:17.400Z,2.60
2018-07-26T13:04:45.999Z,6.83
2018-07-26T13:07:14.791Z,3.10
2018-07-26T13:09:43.392Z,3.60
2018-07-26T13:12:12.040Z,2.40
2018-07-26T13:14:40.824Z,3.00
2018-07-26T13:17:09.597Z,2.40
2018-07-26T13:19:38.255Z,2.60
2018-07-26T13:22:06.845Z,5.40
2018-07-26T13:24:35.576Z,3.47
2018-07-26T13:27:04.196Z,2.37
2018-07-26T13:29:32.806Z,3.17
2018-07-26T13:32:01.481Z,2.43
2018-07-26T13:34:29.976Z,2.30
2018-07-26T13:36:58.499Z,2.57
2018-07-26T13:39:27.014Z,2.87
2018-07-26T13:41:55.519Z,2.43
2018-07-26T13:44:24.830Z,5.30
2018-07-26T13:46:53.345Z,3.20
2018-07-26T13:49:21.850Z,2.70
2018-07-26T13:51:50.399Z,2.67
2018-07-26T13:54:18.977Z,2.70
2018-07-26T13:56:47.486Z,2.50
2018-07-26T13:59:15.979Z,2.70
2018-07-26T14:01:44.520Z,2.53
2018-07-26T14:04:13.116Z,2.43
2018-07-26T14:06:41.627Z,2.47
2018-07-26T14:09:11.414Z,2.47
2018-07-26T14:11:40.321Z,3.10
2018-07-26T14:14:09.114Z,3.30
2018-07-26T14:16:37.882Z,4.53
2018-07-26T14:19:07.188Z,3.07
2018-07-26T14:21:35.720Z,3.33
2018-07-26T14:24:08.248Z,4.57
2018-07-26T14:26:36.769Z,3.47
2018-07-26T14:29:05.305Z,2.90
2018-07-26T14:31:33.869Z,7.97
2018-07-26T14:34:02.551Z,3.97
2018-07-26T14:36:32.738Z,4.27
2018-07-26T14:41:21.033Z,3.60
2018-07-26T14:43:49.584Z,2.37
2018-07-26T14:46:18.102Z,3.63
2018-07-26T14:48:46.657Z,3.87
2018-07-26T14:51:15.277Z,8.63
2018-07-26T14:53:43.808Z,4.83
2018-07-26T14:56:12.349Z,4.70
2018-07-26T14:58:40.922Z,3.90
2018-07-26T15:01:09.747Z,3.07
2018-07-26T15:03:38.268Z,2.90
2018-07-26T15:06:06.821Z,2.80
2018-07-26T15:08:35.351Z,2.93
2018-07-26T15:11:03.883Z,3.30
2018-07-26T15:13:32.404Z,3.50
2018-07-26T15:16:00.899Z,3.30
2018-07-26T15:18:29.478Z,3.23
2018-07-26T15:20:58.090Z,4.03
2018-07-26T15:23:26.694Z,3.07
2018-07-26T15:25:55.343Z,3.63
2018-07-26T15:28:23.915Z,3.90
2018-07-26T15:30:52.576Z,5.03
2018-07-26T15:33:21.235Z,3.93
2018-07-26T15:35:49.914Z,4.07
2018-07-26T15:38:18.563Z,4.43
2018-07-26T15:40:47.168Z,2.97
2018-07-26T15:43:15.728Z,3.53
2018-07-26T15:45:44.367Z,5.10
2018-07-26T15:48:13.045Z,5.70
2018-07-26T15:50:41.667Z,2.60
2018-07-26T15:53:10.273Z,3.47
2018-07-26T15:55:40.005Z,3.80
2018-07-26T15:58:08.577Z,3.33
2018-07-26T16:00:37.220Z,8.60
2018-07-26T16:03:06.051Z,4.23
2018-07-26T16:05:34.708Z,8.20
2018-07-26T16:08:03.325Z,4.67
2018-07-26T16:10:31.987Z,5.60
2018-07-26T16:13:00.626Z,3.00
2018-07-26T16:15:29.250Z,3.73
2018-07-26T16:17:58.006Z,7.27
2018-07-26T16:20:26.529Z,4.97
2018-07-26T16:22:55.136Z,4.00
2018-07-26T16:25:24.214Z,3.27
2018-07-26T16:27:53.487Z,4.73
2018-07-26T16:30:22.151Z,3.80
2018-07-26T16:32:50.776Z,4.63
2018-07-26T16:35:19.435Z,5.30
2018-07-26T16:37:48.017Z,7.20
2018-07-26T16:40:16.820Z,3.93
2018-07-26T16:42:45.433Z,5.93
2018-07-26T16:45:14.071Z,4.10
2018-07-26T16:47:42.758Z,4.60
2018-07-26T16:50:11.366Z,2.97
2018-07-26T16:52:40.018Z,6.00
2018-07-26T16:55:08.712Z,4.67
2018-07-26T16:57:37.372Z,4.17
2018-07-26T17:00:07.557Z,5.20
2018-07-26T17:02:36.192Z,3.37
2018-07-26T17:05:05.805Z,2.80
2018-07-26T17:07:34.470Z,6.10
2018-07-26T17:10:03.229Z,4.10
2018-07-26T17:12:31.903Z,2.63
2018-07-26T17:15:00.485Z,2.80
2018-07-26T17:17:29.068Z,3.73
2018-07-26T17:19:57.740Z,2.40
2018-07-26T17:22:26.411Z,3.13
2018-07-26T17:24:55.079Z,5.30
2018-07-26T17:27:23.689Z,4.53
2018-07-26T17:29:52.320Z,2.53
2018-07-26T17:32:21.026Z,2.87
2018-07-26T17:34:49.660Z,2.17
2018-07-26T17:37:18.295Z,3.07
2018-07-26T17:39:46.977Z,2.70
2018-07-26T17:42:15.682Z,3.10
2018-07-26T17:44:44.288Z,2.80
2018-07-26T17:47:13.012Z,2.53
2018-07-26T17:49:41.676Z,4.70
2018-07-26T17:52:10.439Z,2.20
2018-07-26T17:54:39.079Z,2.57
2018-07-26T17:57:07.731Z,2.20
2018-07-26T17:59:36.291Z,1.80
2018-07-26T18:02:04.917Z,3.77
2018-07-26T18:04:33.510Z,2.83
2018-07-26T18:07:02.144Z,6.43
2018-07-26T18:09:30.713Z,2.20
2018-07-26T18:11:59.271Z,2.40
2018-07-26T18:14:27.815Z,5.03
2018-07-26T18:16:56.651Z,2.20
2018-07-26T18:19:25.971Z,5.33
2018-07-26T18:21:54.593Z,2.70
2018-07-26T18:24:23.247Z,3.73
2018-07-26T18:26:51.832Z,2.97
2018-07-26T18:29:20.443Z,9.57
2018-07-26T18:31:49.119Z,4.77
2018-07-26T18:34:17.357Z,2.60
2018-07-26T18:36:45.611Z,3.37
2018-07-26T18:39:14.229Z,3.03
2018-07-26T18:41:42.877Z,14.17
2018-07-26T18:44:11.610Z,3.50
2018-07-26T18:46:40.380Z,9.00
2018-07-26T18:49:09.854Z,5.00
2018-07-26T18:51:38.551Z,4.30
2018-07-26T18:54:07.336Z,7.23
2018-07-26T18:56:35.943Z,5.60
2018-07-26T18:59:04.711Z,2.67
2018-07-26T19:01:33.329Z,2.53
2018-07-26T19:04:02.038Z,4.23
2018-07-26T19:06:30.725Z,31.63
2018-07-26T19:08:59.330Z,5.90
2018-07-26T19:11:28.103Z,11.50
2018-07-26T19:13:57.214Z,2.50
2018-07-26T19:16:25.889Z,3.30
2018-07-26T19:18:54.460Z,2.57
2018-07-26T19:21:23.062Z,69.80
2018-07-26T19:23:51.684Z,24.27
2018-07-26T19:26:20.234Z,6.83
2018-07-26T19:28:49.005Z,4.33
2018-07-26T19:31:17.841Z,2.87
2018-07-26T19:33:46.291Z,68.23
2018-07-26T19:36:15.318Z,3.43
2018-07-26T19:38:44.163Z,4.10
2018-07-26T19:41:12.822Z,4.00
2018-07-26T19:43:41.510Z,4.63
2018-07-26T19:46:10.344Z,6.90
2018-07-26T19:48:39.039Z,10.03
2018-07-26T19:51:07.912Z,3.87
2018-07-26T19:53:36.901Z,5.27
2018-07-26T19:56:05.904Z,3.37
2018-07-26T19:58:34.812Z,4.53
2018-07-26T20:01:03.799Z,3.70
2018-07-26T20:03:32.565Z,3.10
2018-07-26T20:06:01.461Z,3.90
2018-07-26T20:08:30.187Z,3.63
2018-07-26T20:10:58.927Z,8.43
2018-07-26T20:13:28.336Z,3.47
2018-07-26T20:15:57.248Z,4.50
2018-07-26T20:24:13.010Z,9.70
2018-07-26T20:26:42.254Z,3.60
2018-07-26T20:29:11.312Z,4.60
2018-07-26T20:31:40.187Z,10.80
2018-07-26T20:34:09.029Z,5.30
2018-07-26T20:36:38.063Z,5.00
2018-07-26T20:39:10.312Z,4.13
2018-07-26T20:41:39.401Z,9.83
2018-07-26T20:44:08.437Z,6.90
2018-07-26T20:46:37.688Z,8.20
2018-07-26T20:49:06.841Z,23.30
2018-07-26T20:51:36.068Z,4.33
2018-07-26T20:54:05.298Z,6.00
2018-07-26T20:56:34.657Z,5.43
2018-07-26T20:59:03.932Z,5.77
2018-07-26T21:01:32.924Z,4.57
2018-07-26T21:04:01.969Z,48.03
2018-07-26T21:06:31.531Z,5.27
2018-07-26T21:09:00.556Z,4.63
2018-07-26T21:11:29.649Z,6.10
2018-07-26T21:13:58.542Z,6.53
2018-07-26T21:16:28.002Z,6.03
2018-07-26T21:18:56.756Z,4.97
2018-07-26T21:21:25.962Z,4.90
2018-07-26T21:23:55.430Z,5.47
2018-07-26T21:26:24.436Z,4.57
2018-07-26T21:28:53.507Z,7.70
2018-07-26T21:31:22.625Z,4.50
2018-07-26T21:33:52.270Z,4.53
2018-07-26T21:36:21.822Z,7.63
2018-07-26T21:38:50.785Z,7.33
2018-07-26T21:41:20.160Z,5.77
2018-07-26T21:43:49.323Z,4.77
2018-07-26T21:46:17.956Z,6.97
2018-07-26T21:48:46.598Z,4.90
2018-07-26T21:51:15.197Z,6.83
2018-07-26T21:53:43.978Z,6.67
2018-07-26T21:56:12.789Z,5.50
2018-07-26T21:58:41.425Z,5.87
2018-07-26T22:01:10.285Z,6.30
2018-07-26T22:03:39.076Z,5.50
2018-07-26T22:06:07.703Z,5.83
2018-07-26T22:08:36.436Z,8.57
2018-07-26T22:11:05.118Z,6.03
2018-07-26T22:13:33.707Z,29.23
2018-07-26T22:16:02.324Z,64.83
2018-07-26T22:18:30.976Z,57.93
2018-07-26T22:21:00.216Z,44.57
2018-07-26T22:23:29.132Z,17.10
2018-07-26T22:25:57.761Z,13.20
2018-07-26T22:28:26.384Z,21.20
2018-07-26T22:30:54.990Z,14.23
2018-07-26T22:33:23.633Z,16.60
2018-07-26T22:35:52.253Z,19.10
2018-07-26T22:38:20.940Z,14.13
2018-07-26T22:40:49.307Z,12.67
2018-07-26T22:43:17.958Z,19.60
2018-07-26T22:45:46.642Z,10.17
2018-07-26T22:48:15.229Z,14.17
2018-07-26T22:50:44.473Z,8.57
2018-07-26T22:53:13.313Z,12.00
2018-07-26T22:55:41.989Z,8.77
2018-07-26T22:58:10.705Z,9.60
2018-07-26T23:00:39.461Z,11.03
2018-07-26T23:03:08.101Z,7.90
2018-07-26T23:05:36.787Z,10.60
2018-07-26T23:08:05.793Z,7.13
2018-07-26T23:10:35.068Z,7.50
2018-07-26T23:13:03.680Z,6.97
2018-07-26T23:15:32.303Z,14.43
2018-07-26T23:18:01.056Z,6.73
2018-07-26T23:20:29.867Z,8.17
2018-07-26T23:22:58.507Z,8.47
2018-07-26T23:25:27.081Z,8.33
2018-07-26T23:27:55.778Z,8.33
2018-07-26T23:30:24.455Z,7.90
2018-07-26T23:32:53.074Z,16.73
2018-07-26T23:35:21.688Z,9.57
2018-07-26T23:37:50.415Z,8.70
2018-07-26T23:40:19.164Z,8.13
2018-07-26T23:42:47.759Z,8.40
2018-07-26T23:45:16.639Z,8.30
2018-07-26T23:47:45.224Z,10.77
2018-07-26T23:50:13.806Z,23.83
2018-07-26T23:52:42.773Z,9.03
2018-07-26T23:55:11.443Z,7.80
2018-07-26T23:57:40.164Z,8.10
